createdAt,value
2024-01-05T00:02:13.689Z,96491.72
2024-01-05T00:04:41.844Z,96490.28
2024-01-05T00:07:10.308Z,96500.56
2024-01-05T00:09:37.833Z,96500.56
2024-01-05T00:12:07.388Z,96498.75
2024-01-05T00:14:38.116Z,96502.00
2024-01-05T00:17:05.527Z,96507.94
2024-01-05T00:19:33.085Z,96496.19
2024-01-05T00:22:00.420Z,96492.88
2024-01-05T00:24:27.631Z,96488.78
2024-01-05T00:26:55.021Z,96495.59
2024-01-05T00:29:22.504Z,96494.75
2024-01-05T00:31:51.648Z,96498.19
2024-01-05T00:34:18.767Z,96494.81
2024-01-05T00:36:46.590Z,96500.72
2024-01-05T00:39:14.222Z,96499.75
2024-01-05T00:41:42.208Z,96498.72
2024-01-05T00:44:09.949Z,96510.31
2024-01-05T00:46:39.360Z,96519.38
2024-01-05T00:49:08.787Z,96519.19
2024-01-05T00:51:36.426Z,96528.31
2024-01-05T00:54:03.777Z,96531.50
2024-01-05T00:56:31.327Z,96525.38
2024-01-05T00:59:00.542Z,96525.31
2024-01-05T01:01:27.637Z,96530.41
2024-01-05T01:03:55.319Z,96528.72
2024-01-05T01:06:24.339Z,96526.31
2024-01-05T01:08:52.057Z,96528.94
2024-01-05T01:11:19.594Z,96532.38
2024-01-05T01:13:47.142Z,96518.78
2024-01-05T01:16:14.493Z,96528.31
2024-01-05T01:18:42.094Z,96526.56
2024-01-05T01:21:09.501Z,96519.56
2024-01-05T01:23:38.151Z,96526.41
2024-01-05T01:26:05.830Z,96533.38
2024-01-05T01:28:32.830Z,96526.72
2024-01-05T01:31:00.208Z,96534.56
2024-01-05T01:33:27.655Z,96541.41
2024-01-05T01:35:56.212Z,96529.53
2024-01-05T01:38:23.272Z,96538.91
2024-01-05T01:40:53.327Z,96538.00
2024-01-05T01:43:22.742Z,96553.28
2024-01-05T01:45:50.146Z,96552.50
2024-01-05T01:48:20.270Z,96560.28
2024-01-05T01:50:48.488Z,96554.38
2024-01-05T01:53:18.219Z,96550.31
2024-01-05T01:55:46.831Z,96549.69
2024-01-05T01:58:17.138Z,96552.31
2024-01-05T02:00:45.887Z,96541.25
2024-01-05T02:03:14.751Z,96542.16
2024-01-05T02:05:42.556Z,96536.31
2024-01-05T02:08:09.780Z,96546.50
2024-01-05T02:10:36.744Z,96543.13
2024-01-05T02:13:04.353Z,96547.31
2024-01-05T02:15:33.117Z,96545.63
2024-01-05T02:18:00.862Z,96552.63
2024-01-05T02:20:28.455Z,96555.25
2024-01-05T02:23:01.454Z,96551.69
2024-01-05T02:25:30.852Z,96550.72
2024-01-05T02:27:58.055Z,96543.72
2024-01-05T02:30:25.348Z,96543.63
2024-01-05T02:32:52.737Z,96542.06
2024-01-05T02:35:20.297Z,96536.13
2024-01-05T02:37:47.827Z,96532.63
2024-01-05T02:40:15.412Z,96535.16
2024-01-05T02:42:44.192Z,96528.97
2024-01-05T02:45:11.265Z,96521.84
2024-01-05T02:47:38.836Z,96519.28
2024-01-05T02:50:07.954Z,96512.44
2024-01-05T02:52:35.055Z,96504.69
2024-01-05T02:55:02.160Z,96511.66
2024-01-05T02:57:29.967Z,96501.50
2024-01-05T02:59:58.857Z,96508.31
2024-01-05T03:02:26.293Z,96495.44
2024-01-05T03:04:53.958Z,96488.59
2024-01-05T03:07:21.008Z,96494.53
2024-01-05T03:09:48.124Z,96486.03
2024-01-05T03:12:15.228Z,96490.13
2024-01-05T03:14:42.635Z,96482.53
2024-01-05T03:17:11.697Z,96474.91
2024-01-05T03:19:38.757Z,96477.47
2024-01-05T03:22:05.910Z,96468.09
2024-01-05T03:24:33.059Z,96466.47
2024-01-05T03:27:00.719Z,96478.28
2024-01-05T03:29:27.747Z,96476.72
2024-01-05T03:31:54.971Z,96466.53
2024-01-05T03:34:24.252Z,96460.63
2024-01-05T03:36:52.317Z,96464.91
2024-01-05T03:39:19.757Z,96454.56
2024-01-05T03:41:47.202Z,96459.69
2024-01-05T03:44:14.355Z,96454.50
2024-01-05T03:46:41.654Z,96456.00
2024-01-05T03:49:08.780Z,96456.59
2024-01-05T03:51:37.177Z,96447.91
2024-01-05T03:54:04.797Z,96465.69
2024-01-05T03:56:40.170Z,96473.97
2024-01-05T03:59:08.358Z,96473.06
2024-01-05T04:01:43.724Z,96466.22
2024-01-05T04:04:11.390Z,96452.56
2024-01-05T04:06:41.723Z,96448.28
2024-01-05T04:09:09.491Z,96443.94
2024-01-05T04:11:37.037Z,96447.22
2024-01-05T04:14:04.189Z,96445.38
2024-01-05T04:16:32.312Z,96441.88
2024-01-05T04:18:59.567Z,96435.00
2024-01-05T04:21:26.751Z,96432.44
2024-01-05T04:23:56.024Z,96433.28
2024-01-05T04:26:23.260Z,96420.41
2024-01-05T04:28:50.424Z,96427.31
2024-01-05T04:31:18.205Z,96426.75
2024-01-05T04:33:45.592Z,96427.78
2024-01-05T04:36:12.730Z,96429.53
2024-01-05T04:38:39.710Z,96428.75
2024-01-05T04:41:09.175Z,96423.75
2024-01-05T04:43:36.246Z,96416.88
2024-01-05T04:46:03.487Z,96426.25
2024-01-05T04:48:30.908Z,96417.81
2024-01-05T04:50:58.550Z,96427.13
2024-01-05T04:53:26.236Z,96438.91
2024-01-05T04:55:53.479Z,96426.03
2024-01-05T04:58:23.873Z,96419.84
2024-01-05T05:00:51.895Z,96412.78
2024-01-05T05:03:19.662Z,96413.56
2024-01-05T05:05:47.145Z,96412.91
2024-01-05T05:08:14.879Z,96411.22
2024-01-05T05:10:42.473Z,96415.47
2024-01-05T05:13:09.829Z,96409.53
2024-01-05T05:15:39.568Z,96410.38
2024-01-05T05:18:07.838Z,96413.84
2024-01-05T05:20:35.605Z,96407.03
2024-01-05T05:23:03.046Z,96400.91
2024-01-05T05:25:30.317Z,96408.47
2024-01-05T05:27:57.491Z,96408.22
2024-01-05T05:30:25.559Z,96408.91
2024-01-05T05:32:54.797Z,96410.44
2024-01-05T05:35:22.167Z,96415.38
2024-01-05T05:37:49.161Z,96409.44
2024-01-05T05:40:16.810Z,96397.50
2024-01-05T05:42:43.822Z,96393.03
2024-01-05T05:45:11.815Z,96386.13
2024-01-05T05:47:39.436Z,96400.53
2024-01-05T05:50:14.912Z,96408.06
2024-01-05T05:52:42.364Z,96421.69
2024-01-05T05:55:10.543Z,96430.16
2024-01-05T05:57:37.696Z,96433.47
2024-01-05T06:00:07.847Z,96444.59
2024-01-05T06:02:35.440Z,96449.78
2024-01-05T06:05:02.636Z,96442.22
2024-01-05T06:07:31.203Z,96444.81
2024-01-05T06:09:59.425Z,96451.50
2024-01-05T06:12:26.517Z,96453.22
2024-01-05T06:14:54.335Z,96467.53
2024-01-05T06:17:21.418Z,96449.69
2024-01-05T06:19:48.629Z,96438.31
2024-01-05T06:22:15.666Z,96447.41
2024-01-05T06:24:44.442Z,96447.34
2024-01-05T06:27:12.790Z,96453.25
2024-01-05T06:29:41.558Z,96461.06
2024-01-05T06:32:10.024Z,96463.22
2024-01-05T06:34:37.071Z,96454.28
2024-01-05T06:37:04.695Z,96447.69
2024-01-05T06:39:32.071Z,96439.13
2024-01-05T06:42:02.497Z,96424.47
2024-01-05T06:44:29.453Z,96430.38
2024-01-05T06:46:56.748Z,96426.00
2024-01-05T06:49:24.910Z,96417.44
2024-01-05T06:51:52.364Z,96402.94
2024-01-05T06:54:21.209Z,96397.03
2024-01-05T06:56:48.346Z,96410.81
2024-01-05T06:59:17.632Z,96418.25
2024-01-05T07:01:45.481Z,96418.72
2024-01-05T07:04:12.969Z,96414.00
2024-01-05T07:06:42.014Z,96406.19
2024-01-05T07:09:09.460Z,96408.69
2024-01-05T07:11:36.473Z,96407.59
2024-01-05T07:14:03.552Z,96410.78
2024-01-05T07:16:32.344Z,96396.66
2024-01-05T07:18:59.522Z,96401.56
2024-01-05T07:21:27.254Z,96403.00
2024-01-05T07:23:54.615Z,96406.00
2024-01-05T07:26:21.921Z,96408.25
2024-01-05T07:28:49.017Z,96416.94
2024-01-05T07:31:22.139Z,96421.16
2024-01-05T07:33:51.476Z,96421.66
2024-01-05T07:36:19.401Z,96426.28
2024-01-05T07:38:46.606Z,96429.91
2024-01-05T07:41:16.635Z,96426.19
2024-01-05T07:43:43.761Z,96407.75
2024-01-05T07:46:11.112Z,96418.00
2024-01-05T07:48:41.228Z,96419.47
2024-01-05T07:51:10.660Z,96421.84
2024-01-05T07:53:38.303Z,96416.44
2024-01-05T07:56:06.753Z,96411.91
2024-01-05T07:58:33.794Z,96410.78
2024-01-05T08:01:00.914Z,96400.28
2024-01-05T08:03:29.081Z,96394.13
2024-01-05T08:05:56.363Z,96392.88
2024-01-05T08:08:25.362Z,96380.31
2024-01-05T08:10:53.074Z,96399.72
2024-01-05T08:13:20.314Z,96413.13
2024-01-05T08:15:47.670Z,96417.38
2024-01-05T08:18:15.089Z,96411.25
2024-01-05T08:20:42.860Z,96418.66
2024-01-05T08:23:10.720Z,96426.13
2024-01-05T08:25:39.816Z,96419.78
2024-01-05T08:28:07.450Z,96433.25
2024-01-05T08:30:35.064Z,96422.03
2024-01-05T08:33:02.608Z,96406.81
2024-01-05T08:35:30.218Z,96403.22
2024-01-05T08:37:57.352Z,96409.75
2024-01-05T08:40:24.499Z,96411.03
2024-01-05T08:42:54.161Z,96429.34
2024-01-05T08:45:21.952Z,96423.06
2024-01-05T08:47:50.008Z,96402.47
2024-01-05T08:50:17.441Z,96420.28
2024-01-05T08:52:44.775Z,96431.31
2024-01-05T08:55:14.830Z,96442.09
2024-01-05T08:57:42.290Z,96438.16
2024-01-05T09:00:12.214Z,96432.50
2024-01-05T09:02:39.509Z,96439.06
2024-01-05T09:05:07.362Z,96439.88
2024-01-05T09:07:39.155Z,96422.13
2024-01-05T09:10:08.973Z,96428.47
2024-01-05T09:12:36.238Z,96423.94
2024-01-05T09:15:03.699Z,96419.31
2024-01-05T09:17:32.594Z,96417.91
2024-01-05T09:20:00.052Z,96417.25
2024-01-05T09:22:27.266Z,96420.59
2024-01-05T09:24:54.500Z,96409.25
2024-01-05T09:27:22.699Z,96418.66
2024-01-05T09:29:50.025Z,96409.69
2024-01-05T09:32:17.221Z,96394.97
2024-01-05T09:34:46.205Z,96404.84
2024-01-05T09:37:13.858Z,96399.34
2024-01-05T09:39:41.269Z,96391.38
2024-01-05T09:42:09.665Z,96388.59
2024-01-05T09:44:37.651Z,96379.56
2024-01-05T09:47:05.807Z,96370.03
2024-01-05T09:49:36.126Z,96377.91
2024-01-05T09:52:05.753Z,96398.97
2024-01-05T09:54:33.054Z,96410.75
2024-01-05T09:57:01.150Z,96404.59
2024-01-05T09:59:31.089Z,96394.75
2024-01-05T10:02:01.533Z,96388.38
2024-01-05T10:04:30.096Z,96382.00
2024-01-05T10:07:00.868Z,96385.72
2024-01-05T10:09:31.205Z,96387.41
2024-01-05T10:11:59.290Z,96379.13
2024-01-05T10:14:27.627Z,96393.38
2024-01-05T10:17:09.925Z,96384.50
2024-01-05T10:19:37.517Z,96396.22
2024-01-05T10:22:10.297Z,96393.66
2024-01-05T10:24:39.631Z,96387.28
2024-01-05T10:27:09.573Z,96374.63
2024-01-05T10:29:37.980Z,96371.97
2024-01-05T10:32:16.841Z,96366.81
2024-01-05T10:34:46.814Z,96365.91
2024-01-05T10:37:14.850Z,96352.91
2024-01-05T10:39:48.388Z,96359.81
2024-01-05T10:42:20.052Z,96351.31
2024-01-05T10:44:49.147Z,96339.19
2024-01-05T10:47:16.890Z,96333.84
2024-01-05T10:49:46.830Z,96321.53
2024-01-05T10:52:14.405Z,96314.59
2024-01-05T10:54:41.929Z,96313.63
2024-01-05T10:57:14.236Z,96310.94
2024-01-05T10:59:43.955Z,96310.94
2024-01-05T11:02:22.409Z,96321.09
2024-01-05T11:04:58.469Z,96310.34
2024-01-05T11:07:28.157Z,96297.44
2024-01-05T11:10:07.742Z,96299.44
2024-01-05T11:13:02.238Z,96288.16
2024-01-05T11:15:44.395Z,96284.00
2024-01-05T11:18:32.189Z,96278.38
2024-01-05T11:21:19.678Z,96274.28
2024-01-05T11:23:48.090Z,96283.94
2024-01-05T11:26:31.932Z,96276.44
2024-01-05T11:29:01.252Z,96266.97
2024-01-05T11:31:54.872Z,96263.19
2024-01-05T11:34:33.157Z,96256.94
2024-01-05T11:37:01.361Z,96263.00
2024-01-05T11:39:47.208Z,96238.56
2024-01-05T11:42:30.832Z,96236.53
2024-01-05T11:45:01.475Z,96236.28
2024-01-05T11:47:45.211Z,96239.84
2024-01-05T11:50:25.432Z,96240.56
2024-01-05T11:53:08.692Z,96242.22
2024-01-05T11:55:36.583Z,96226.44
2024-01-05T11:58:04.378Z,96223.72
2024-01-05T12:00:33.424Z,96211.06
2024-01-05T12:03:04.167Z,96226.44
2024-01-05T12:05:31.803Z,96228.72
2024-01-05T12:08:00.340Z,96215.97
2024-01-05T12:10:28.844Z,96205.59
2024-01-05T12:12:56.642Z,96207.78
2024-01-05T12:15:24.731Z,96186.09
2024-01-05T12:18:02.825Z,96184.88
2024-01-05T12:20:30.446Z,96179.03
2024-01-05T12:22:57.624Z,96171.41
2024-01-05T12:25:24.848Z,96170.78
2024-01-05T12:27:52.659Z,96182.47
2024-01-05T12:30:21.331Z,96172.47
2024-01-05T12:32:49.551Z,96161.16
2024-01-05T12:35:18.805Z,96174.09
2024-01-05T12:37:52.960Z,96167.44
2024-01-05T12:40:23.301Z,96161.03
2024-01-05T12:42:51.407Z,96151.56
2024-01-05T12:45:18.956Z,96164.78
2024-01-05T12:47:47.501Z,96162.56
2024-01-05T12:50:26.833Z,96161.31
2024-01-05T12:52:54.377Z,96161.72
2024-01-05T12:55:29.874Z,96169.16
2024-01-05T12:58:02.472Z,96165.44
2024-01-05T13:00:31.675Z,96166.63
2024-01-05T13:02:59.077Z,96160.06
2024-01-05T13:05:39.631Z,96159.16
2024-01-05T13:08:07.652Z,96160.84
2024-01-05T13:10:36.426Z,96160.25
2024-01-05T13:13:06.023Z,96159.50
2024-01-05T13:15:34.048Z,96155.81
2024-01-05T13:18:01.850Z,96166.53
2024-01-05T13:20:32.471Z,96149.72
2024-01-05T13:22:59.736Z,96147.72
2024-01-05T13:25:27.275Z,96139.78
2024-01-05T13:27:54.510Z,96137.41
2024-01-05T13:30:22.261Z,96130.88
2024-01-05T13:32:50.723Z,96138.47
2024-01-05T13:35:18.460Z,96126.34
2024-01-05T13:37:47.598Z,96128.97
2024-01-05T13:40:14.750Z,96122.31
2024-01-05T13:42:42.665Z,96127.41
2024-01-05T13:45:10.715Z,96134.56
2024-01-05T13:47:37.982Z,96143.47
2024-01-05T13:50:07.791Z,96129.38
2024-01-05T13:52:34.996Z,96131.34
2024-01-05T13:55:04.241Z,96134.56
2024-01-05T13:57:31.846Z,96138.19
2024-01-05T13:59:59.587Z,96146.38
2024-01-05T14:02:27.443Z,96135.06
2024-01-05T14:04:55.262Z,96139.84
2024-01-05T14:07:22.923Z,96135.41
2024-01-05T14:09:50.032Z,96142.63
2024-01-05T14:12:18.925Z,96131.56
2024-01-05T14:14:46.248Z,96130.63
2024-01-05T14:17:13.536Z,96127.84
2024-01-05T14:19:41.803Z,96134.66
2024-01-05T14:22:09.124Z,96139.53
2024-01-05T14:24:36.240Z,96127.94
2024-01-05T14:27:03.561Z,96122.53
2024-01-05T14:29:32.670Z,96118.69
2024-01-05T14:31:59.758Z,96106.97
2024-01-05T14:34:27.164Z,96109.19
2024-01-05T14:36:54.795Z,96101.81
2024-01-05T14:39:21.803Z,96108.34
2024-01-05T14:41:48.901Z,96110.22
2024-01-05T14:44:16.492Z,96094.44
2024-01-05T14:46:45.482Z,96097.56
2024-01-05T14:49:13.052Z,96097.03
2024-01-05T14:51:40.422Z,96091.53
2024-01-05T14:54:08.242Z,96083.63
2024-01-05T14:56:35.475Z,96090.28
2024-01-05T14:59:03.285Z,96095.53
2024-01-05T15:01:30.635Z,96094.59
2024-01-05T15:03:59.646Z,96099.78
2024-01-05T15:06:27.372Z,96101.50
2024-01-05T15:08:54.660Z,96080.06
2024-01-05T15:11:22.289Z,96089.78
2024-01-05T15:13:49.578Z,96085.66
2024-01-05T15:16:16.706Z,96081.50
2024-01-05T15:18:43.921Z,96092.78
2024-01-05T15:21:12.722Z,96092.16
2024-01-05T15:23:43.288Z,96102.91
2024-01-05T15:26:10.499Z,96109.47
2024-01-05T15:28:37.751Z,96101.09
2024-01-05T15:31:05.695Z,96089.34
2024-01-05T15:33:32.976Z,96101.66
2024-01-05T15:36:01.256Z,96114.34
2024-01-05T15:38:30.118Z,96105.31
2024-01-05T15:40:58.031Z,96105.16
2024-01-05T15:43:26.197Z,96099.63
2024-01-05T15:45:53.601Z,96096.44
2024-01-05T15:48:21.487Z,96092.41
2024-01-05T15:50:48.914Z,96094.06
2024-01-05T15:53:16.330Z,96099.13
2024-01-05T15:55:51.615Z,96098.94
2024-01-05T15:58:25.057Z,96099.13
2024-01-05T16:00:52.253Z,96092.50
2024-01-05T16:03:19.580Z,96098.88
2024-01-05T16:05:46.811Z,96110.22
2024-01-05T16:08:13.992Z,96098.03
2024-01-05T16:10:41.671Z,96109.50
2024-01-05T16:13:10.821Z,96113.25
2024-01-05T16:15:38.147Z,96111.69
2024-01-05T16:18:05.627Z,96103.94
2024-01-05T16:20:36.714Z,96106.78
2024-01-05T16:23:04.114Z,96109.75
2024-01-05T16:25:32.614Z,96109.09
2024-01-05T16:28:00.255Z,96104.38
2024-01-05T16:30:29.435Z,96099.66
2024-01-05T16:32:58.753Z,96097.72
2024-01-05T16:35:25.945Z,96103.06
2024-01-05T16:37:53.311Z,96105.72
2024-01-05T16:40:20.932Z,96111.56
2024-01-05T16:42:48.490Z,96120.31
2024-01-05T16:45:16.088Z,96120.22
2024-01-05T16:47:45.267Z,96119.78
2024-01-05T16:50:12.610Z,96117.38
2024-01-05T16:52:40.226Z,96119.41
2024-01-05T16:55:07.968Z,96137.38
2024-01-05T16:57:35.464Z,96124.28
2024-01-05T17:00:02.889Z,96120.38
2024-01-05T17:02:30.510Z,96110.41
2024-01-05T17:04:59.574Z,96106.06
2024-01-05T17:07:26.682Z,96105.81
2024-01-05T17:09:54.035Z,96106.06
2024-01-05T17:12:22.308Z,96118.34
2024-01-05T17:14:49.444Z,96119.06
2024-01-05T17:17:16.511Z,96129.03
2024-01-05T17:19:44.048Z,96111.81
2024-01-05T17:22:13.165Z,96112.75
2024-01-05T17:24:40.448Z,96127.94
2024-01-05T17:27:08.365Z,96123.75
2024-01-05T17:29:36.540Z,96126.50
2024-01-05T17:32:03.996Z,96115.47
2024-01-05T17:34:31.346Z,96116.03
2024-01-05T17:37:01.744Z,96125.53
2024-01-05T17:39:32.008Z,96130.69
2024-01-05T17:41:59.617Z,96129.66
2024-01-05T17:44:28.174Z,96121.00
2024-01-05T17:46:57.119Z,96134.56
2024-01-05T17:49:24.842Z,96125.25
2024-01-05T17:51:52.134Z,96128.75
2024-01-05T17:54:19.950Z,96127.25
2024-01-05T17:56:48.934Z,96125.69
2024-01-05T17:59:16.435Z,96129.28
2024-01-05T18:01:44.645Z,96137.19
2024-01-05T18:04:12.361Z,96138.19
2024-01-05T18:06:40.063Z,96130.88
2024-01-05T18:09:07.663Z,96138.59
2024-01-05T18:11:35.397Z,96143.28
2024-01-05T18:14:04.617Z,96150.94
2024-01-05T18:16:33.616Z,96140.19
2024-01-05T18:19:00.847Z,96145.53
2024-01-05T18:21:28.446Z,96161.81
2024-01-05T18:23:57.041Z,96154.94
2024-01-05T18:26:25.998Z,96134.38
2024-01-05T18:28:53.161Z,96134.13
2024-01-05T18:31:27.320Z,96145.81
2024-01-05T18:33:56.145Z,96134.88
2024-01-05T18:36:24.422Z,96143.50
2024-01-05T18:38:51.662Z,96140.19
2024-01-05T18:41:22.719Z,96136.88
2024-01-05T18:43:50.184Z,96141.19
2024-01-05T18:46:17.717Z,96137.69
2024-01-05T18:48:48.135Z,96141.00
2024-01-05T18:51:15.816Z,96131.53
2024-01-05T18:53:44.579Z,96143.75
2024-01-05T18:56:12.479Z,96133.09
2024-01-05T18:58:40.075Z,96136.78
2024-01-05T19:01:08.207Z,96135.19
2024-01-05T19:03:35.803Z,96136.72
2024-01-05T19:06:05.328Z,96128.13
2024-01-05T19:08:32.900Z,96119.66
2024-01-05T19:11:00.801Z,96124.81
2024-01-05T19:13:27.942Z,96132.72
2024-01-05T19:15:55.141Z,96130.13
2024-01-05T19:18:22.824Z,96127.06
2024-01-05T19:20:51.444Z,96116.84
2024-01-05T19:23:21.121Z,96122.19
2024-01-05T19:25:48.600Z,96118.66
2024-01-05T19:28:16.100Z,96120.50
2024-01-05T19:30:43.501Z,96122.19
2024-01-05T19:33:10.937Z,96118.66
2024-01-05T19:35:38.579Z,96114.78
2024-01-05T19:38:06.556Z,96126.00
2024-01-05T19:40:35.840Z,96109.78
2024-01-05T19:43:03.122Z,96124.63
2024-01-05T19:45:30.774Z,96116.97
2024-01-05T19:47:58.034Z,96115.38
2024-01-05T19:50:25.616Z,96105.16
2024-01-05T19:52:55.174Z,96109.56
2024-01-05T19:55:22.233Z,96099.41
2024-01-05T19:57:50.704Z,96094.44
2024-01-05T20:00:18.469Z,96100.41
2024-01-05T20:02:45.858Z,96083.34
2024-01-05T20:05:13.717Z,96089.19
2024-01-05T20:07:46.125Z,96087.53
2024-01-05T20:10:14.033Z,96087.59
2024-01-05T20:12:41.200Z,96083.97
2024-01-05T20:15:10.696Z,96082.03
2024-01-05T20:17:37.858Z,96081.28
2024-01-05T20:20:05.924Z,96088.94
2024-01-05T20:22:33.301Z,96085.81
2024-01-05T20:25:00.620Z,96096.31
2024-01-05T20:27:37.462Z,96092.69
2024-01-05T20:30:06.119Z,96092.78
2024-01-05T20:32:35.456Z,96084.13
2024-01-05T20:35:03.100Z,96094.38
2024-01-05T20:37:30.805Z,96088.38
2024-01-05T20:39:57.990Z,96083.41
2024-01-05T20:42:25.371Z,96075.94
2024-01-05T20:44:52.639Z,96084.41
2024-01-05T20:47:19.767Z,96077.91
2024-01-05T20:49:48.426Z,96083.53
2024-01-05T20:52:15.784Z,96084.59
2024-01-05T20:54:42.944Z,96084.53
2024-01-05T20:57:10.938Z,96084.09
2024-01-05T20:59:39.340Z,96077.91
2024-01-05T21:02:06.843Z,96080.31
2024-01-05T21:04:34.929Z,96077.75
2024-01-05T21:07:04.065Z,96076.00
2024-01-05T21:09:31.484Z,96082.06
2024-01-05T21:11:58.712Z,96077.66
2024-01-05T21:14:26.036Z,96088.06
2024-01-05T21:16:53.215Z,96094.72
2024-01-05T21:19:20.477Z,96091.56
2024-01-05T21:21:47.980Z,96085.38
2024-01-05T21:24:16.765Z,96078.50
2024-01-05T21:26:44.011Z,96071.03
2024-01-05T21:29:11.555Z,96079.75
2024-01-05T21:31:38.799Z,96059.94
2024-01-05T21:34:06.159Z,96054.66
2024-01-05T21:36:34.790Z,96056.41
2024-01-05T21:39:01.974Z,96050.34
2024-01-05T21:41:31.066Z,96043.34
2024-01-05T21:43:58.358Z,96050.19
2024-01-05T21:46:25.485Z,96033.69
2024-01-05T21:48:52.659Z,96040.88
2024-01-05T21:51:19.939Z,96037.22
2024-01-05T21:53:47.383Z,96034.38
2024-01-05T21:56:14.705Z,96036.28
2024-01-05T21:58:43.762Z,96042.38
2024-01-05T22:01:11.438Z,96051.56
2024-01-05T22:03:39.078Z,96035.03
2024-01-05T22:06:07.450Z,96035.19
2024-01-05T22:08:35.123Z,96036.56
2024-01-05T22:11:02.647Z,96038.16
2024-01-05T22:13:30.270Z,96033.66
2024-01-05T22:15:59.330Z,96021.69
2024-01-05T22:18:26.861Z,96023.59
2024-01-05T22:20:54.643Z,96024.69
2024-01-05T22:23:22.114Z,96019.63
2024-01-05T22:25:49.345Z,96021.47
2024-01-05T22:28:16.584Z,96021.38
2024-01-05T22:30:44.478Z,96018.06
2024-01-05T22:33:13.687Z,96017.31
2024-01-05T22:35:40.964Z,96005.16
2024-01-05T22:38:08.140Z,96011.16
2024-01-05T22:40:35.333Z,96000.19
2024-01-05T22:43:02.442Z,95995.19
2024-01-05T22:45:30.028Z,95991.06
2024-01-05T22:47:57.283Z,95997.94
2024-01-05T22:50:26.339Z,95997.03
2024-01-05T22:52:53.903Z,95994.38
2024-01-05T22:55:21.096Z,95984.97
2024-01-05T22:57:48.211Z,95986.47
2024-01-05T23:00:16.336Z,95975.25
2024-01-05T23:02:43.756Z,95975.44
2024-01-05T23:05:11.746Z,95981.50
2024-01-05T23:07:41.530Z,95982.47
2024-01-05T23:10:10.112Z,95978.34
2024-01-05T23:12:37.494Z,95970.78
2024-01-05T23:15:05.798Z,95957.16
2024-01-05T23:17:33.201Z,95963.31
2024-01-05T23:20:00.776Z,95959.72
2024-01-05T23:22:28.614Z,95951.16
2024-01-05T23:24:57.815Z,95958.09
2024-01-05T23:27:25.087Z,95942.63
2024-01-05T23:29:52.858Z,95946.47
2024-01-05T23:32:20.144Z,95945.75
2024-01-05T23:34:47.368Z,95941.31
2024-01-05T23:37:14.495Z,95937.03
2024-01-05T23:39:42.547Z,95931.88
2024-01-05T23:42:11.840Z,95927.34
2024-01-05T23:44:39.141Z,95932.69
2024-01-05T23:47:06.874Z,95931.00
2024-01-05T23:49:34.320Z,95936.16
2024-01-05T23:52:01.715Z,95937.75
2024-01-05T23:54:29.635Z,95923.88
2024-01-05T23:56:57.359Z,95932.06
2024-01-05T23:59:26.659Z,95926.72
